This is the latest recevied weather packets stored in our database for station/object VE3ZEB-1. If no packets are shown the sender has not sent any weather packets the latest 10 day(s).
| Time | Temp. | Humidity | Pressure | Rain* | Wind** | Luminosity | Snow |
|---|---|---|---|---|---|---|---|
| 1777480821 | 9.44° C | 81% | 679.4 hPa | 0 mm | - | 93 W/m² | - |
| 1777476022 | 8.89° C | 89% | 679.4 hPa | 0 mm | - | 119 W/m² | - |
| 1777474823 | 8.89° C | 90% | 679.4 hPa | 0.51 mm | - | 94 W/m² | - |
| 1777473623 | 8.33° C | 90% | 679.4 hPa | 1.27 mm | - | 59 W/m² | - |
| 1777472423 | 8.33° C | 89% | 679.4 hPa | 2.79 mm | - | 56 W/m² | - |
| 1777471823 | 8.33° C | 89% | 679.4 hPa | 3.05 mm | - | 55 W/m² | - |
| 1777470024 | 8.33° C | 89% | 679.4 hPa | 2.29 mm | - | 72 W/m² | - |
| 1777464025 | 8.89° C | 82% | 679.4 hPa | 0 mm | - | 19 W/m² | - |
| 1777461025 | 8.33° C | 82% | 679.4 hPa | 0 mm | - | 6 W/m² | - |
| 1777460426 | 8.33° C | 82% | 679.4 hPa | 0 mm | - | 3 W/m² | - |
| 1777459826 | 8.33° C | 82% | 679.4 hPa | 0 mm | - | 2 W/m² | - |
| 1777458646 | 8.33° C | 82% | 679.4 hPa | 0 mm | - | 1 W/m² | - |
| 1777458026 | 8.33° C | 82% | 679.4 hPa | 0 mm | - | 0 W/m² | - |
| 1777457426 | 8.33° C | 82% | 679.4 hPa | 0 mm | - | 0 W/m² | - |
| 1777451427 | 8.33° C | 83% | 679.4 hPa | 0 mm | - | 0 W/m² | - |
| 1777448469 | 9.44° C | 85% | 679.4 hPa | 0 mm | - | 0 W/m² | - |
| 1777447849 | 9.44° C | 86% | 679.4 hPa | 0 mm | - | 0 W/m² | - |
| 1777446029 | 9.44° C | 87% | 679.4 hPa | 0 mm | - | 0 W/m² | - |
| 1777439450 | 10.56° C | 86% | 679.5 hPa | 0 mm | - | 0 W/m² | - |
| 1777438231 | 10° C | 85% | 679.5 hPa | 0 mm | - | 0 W/m² | - |
| 1777429817 | 11.67° C | 75% | 679.6 hPa | 0 mm | - | 0 W/m² | - |
| 1777427416 | 12.78° C | 75% | 679.6 hPa | 0 mm | - | 0 W/m² | - |
| 1777423819 | 13.89° C | 72% | 679.6 hPa | 0 mm | - | 0 W/m² | - |
| 1777417819 | 17.22° C | 66% | 679.8 hPa | 0 mm | - | 52 W/m² | - |
| 1777417246 | 17.22° C | 65% | 679.8 hPa | 0 mm | - | 61 W/m² | - |
* Rain latest hour (hover to see other rain measurements)
** Current wind speed in m/s (hover to see current wind gust speed)